»·PEaware :: N1159Z KSMF-KRDD

N1159Z :: KSMF-KRDD

FLIGHT INFORMATION

Flight Status: Arrived
Operator: Privately registered:
United States
More flights under this callsign
Pilot: Will H. (27002)
Aircraft: CESSNA 172 SKYHAWK
(C172)
More flights by this aircraft type
Origin: KSMF Sacramento Intl
United States
Destination: KRDD Redding Mun
United States
More flights between these airports :: More routes between these airports
Route: +RBL
File this flight plan on PilotEdge
Remarks:
Altitude:
(Current/Filed)
6,000ft
Speed:
(Current/Filed)
105kts
Departed: 13-Sep-20 05:16 PM
Arrived: 13-Sep-20 06:21 PM
Distance/Time
Traveled:
114nm/1:05
Distance/Time
To Go:
Arrived

Flight Plot

Page will automatically refresh every two minutes.

Flight plan parsing failed; only flown route is shown


Map Options




Map Legend


Flown Route
Filed Route
Departure Airport
Arrival Airport
Navaid (VOR, NDB)
Fix

Horizontal Profiles

Position Reports

Time Latitude Longitude Heading Altitude Ground
Speed
13-Sep-20 16:51 38.684280 -121.595981 89 20ft 0kts
13-Sep-20 16:52 38.684280 -121.595981 89 20ft 0kts
13-Sep-20 16:53 38.684280 -121.595981 89 20ft 0kts
13-Sep-20 16:54 38.684280 -121.595981 89 20ft 0kts
13-Sep-20 16:55 38.684280 -121.595981 89 20ft 0kts
13-Sep-20 16:56 38.684280 -121.595981 89 20ft 0kts
13-Sep-20 16:57 38.684280 -121.595981 89 20ft 0kts
13-Sep-20 16:58 38.684280 -121.595981 89 20ft 0kts
13-Sep-20 17:00 38.684280 -121.595981 89 20ft 0kts
13-Sep-20 17:01 38.684280 -121.595981 89 20ft 0kts
13-Sep-20 17:02 38.684280 -121.595981 89 20ft 0kts
13-Sep-20 17:03 38.684280 -121.595981 89 20ft 0kts
13-Sep-20 17:04 38.684280 -121.595981 89 20ft 0kts
13-Sep-20 17:05 38.684249 -121.596079 271 20ft 0kts
13-Sep-20 17:06 38.684249 -121.596079 271 20ft 0kts
13-Sep-20 17:07 38.684250 -121.596243 268 20ft 5kts
13-Sep-20 17:08 38.684315 -121.598840 357 20ft 8kts
13-Sep-20 17:09 38.688326 -121.598767 0 23ft 17kts
13-Sep-20 17:10 38.693938 -121.598681 2 23ft 21kts
13-Sep-20 17:11 38.700053 -121.598587 0 23ft 22kts
13-Sep-20 17:12 38.704712 -121.598499 1 23ft 15kts
13-Sep-20 17:13 38.707200 -121.599787 269 23ft 0kts
13-Sep-20 17:14 38.707200 -121.599787 269 23ft 0kts
13-Sep-20 17:15 38.707142 -121.600721 244 23ft 16kts
13-Sep-20 17:16 38.689741 -121.600528 176 562ft 80kts
13-Sep-20 17:17 38.666750 -121.599850 180 1447ft 82kts
13-Sep-20 17:17 38.647692 -121.598782 182 2163ft 82kts
13-Sep-20 17:18 38.625703 -121.599314 185 3004ft 78kts
13-Sep-20 17:20 38.601060 -121.598881 182 3933ft 73kts
13-Sep-20 17:20 38.584407 -121.598869 182 4536ft 73kts
13-Sep-20 17:21 38.567337 -121.610066 272 5080ft 97kts
13-Sep-20 17:23 38.599496 -121.618823 348 5696ft 114kts
13-Sep-20 17:23 38.625378 -121.627473 338 6032ft 119kts
13-Sep-20 17:24 38.658281 -121.639501 335 6037ft 125kts
13-Sep-20 17:25 38.690356 -121.653983 333 6016ft 118kts
13-Sep-20 17:26 38.721025 -121.666894 334 6014ft 113kts
13-Sep-20 17:27 38.750816 -121.679108 334 6016ft 113kts
13-Sep-20 17:28 38.782214 -121.691982 335 6014ft 120kts
13-Sep-20 17:29 38.814205 -121.704928 335 6015ft 120kts
13-Sep-20 17:30 38.846195 -121.717912 335 6017ft 121kts
13-Sep-20 17:31 38.879096 -121.730708 337 6019ft 124kts
13-Sep-20 17:32 38.912097 -121.743913 338 6020ft 124kts
13-Sep-20 17:33 38.945110 -121.757337 336 6022ft 124kts
13-Sep-20 17:34 38.977927 -121.770882 335 6023ft 123kts
13-Sep-20 17:35 39.010449 -121.784210 335 6024ft 122kts
13-Sep-20 17:36 39.042849 -121.797474 335 6023ft 121kts
13-Sep-20 17:37 39.074616 -121.810480 335 6024ft 120kts
13-Sep-20 17:38 39.106801 -121.823654 335 6024ft 120kts
13-Sep-20 17:39 39.138823 -121.836742 335 6024ft 120kts
13-Sep-20 17:40 39.170716 -121.849775 336 6024ft 120kts
13-Sep-20 17:41 39.202779 -121.862950 346 5999ft 124kts
13-Sep-20 17:42 39.236466 -121.876786 348 6027ft 131kts
13-Sep-20 17:43 39.271824 -121.891252 346 6030ft 136kts
13-Sep-20 17:44 39.308362 -121.906281 343 6035ft 139kts
13-Sep-20 17:45 39.345432 -121.921591 341 6039ft 140kts
13-Sep-20 17:46 39.382785 -121.937035 340 6041ft 140kts
13-Sep-20 17:47 39.420132 -121.952447 341 6041ft 141kts
13-Sep-20 17:48 39.457753 -121.967947 342 6041ft 142kts
13-Sep-20 17:49 39.495421 -121.983546 342 6041ft 142kts
13-Sep-20 17:50 39.533066 -121.999106 343 6041ft 142kts
13-Sep-20 17:51 39.570882 -122.014757 343 6042ft 142kts
13-Sep-20 17:52 39.608812 -122.030526 343 6042ft 142kts
13-Sep-20 17:53 39.646565 -122.046242 343 6042ft 142kts
13-Sep-20 17:54 39.684410 -122.062046 342 6042ft 142kts
13-Sep-20 17:55 39.722231 -122.077857 343 6042ft 143kts
13-Sep-20 17:56 39.760170 -122.093639 343 6043ft 143kts
13-Sep-20 17:57 39.798008 -122.109298 343 6042ft 143kts
13-Sep-20 17:58 39.835644 -122.125031 343 6043ft 143kts
13-Sep-20 17:59 39.873707 -122.140983 343 6044ft 143kts
13-Sep-20 18:00 39.911803 -122.156980 343 6036ft 143kts
13-Sep-20 18:01 39.949926 -122.173007 342 6032ft 144kts
13-Sep-20 18:02 39.988021 -122.189062 342 6026ft 143kts
13-Sep-20 18:03 40.026087 -122.205100 342 6026ft 143kts
13-Sep-20 18:04 40.064037 -122.221322 342 6026ft 144kts
13-Sep-20 18:05 40.101803 -122.237560 345 5864ft 141kts
13-Sep-20 18:06 40.138816 -122.253146 335 5344ft 140kts
13-Sep-20 18:07 40.175629 -122.270301 342 4764ft 142kts
13-Sep-20 18:08 40.212480 -122.289142 334 4086ft 140kts
13-Sep-20 18:09 40.247581 -122.301447 1 3388ft 123kts
13-Sep-20 18:10 40.279908 -122.303334 1 3029ft 111kts
13-Sep-20 18:12 40.314721 -122.305499 0 2727ft 99kts
13-Sep-20 18:12 40.339799 -122.307322 359 2745ft 116kts
13-Sep-20 18:13 40.373220 -122.309639 359 2737ft 122kts
13-Sep-20 18:14 40.406019 -122.306256 16 2625ft 112kts
13-Sep-20 18:15 40.436759 -122.295370 9 2195ft 122kts
13-Sep-20 18:16 40.465188 -122.294343 5 1485ft 96kts
13-Sep-20 18:17 40.489794 -122.287443 15 1164ft 89kts
13-Sep-20 18:18 40.513938 -122.285478 355 1101ft 86kts
13-Sep-20 18:19 40.530885 -122.294313 203 930ft 72kts
13-Sep-20 18:20 40.514769 -122.294957 185 499ft 21kts
13-Sep-20 18:21 40.514235 -122.296026 254 499ft 0kts
13-Sep-20 18:22 40.511611 -122.296291 179 496ft 19kts
13-Sep-20 18:23 40.507111 -122.299138 238 494ft 2kts

Navigation Log

Ident Type
Flight plan parsing failed, navigation log unavailable